createdAt,value
2019-03-10T00:01:25.542Z,52.70
2019-03-10T00:03:55.503Z,52.60
2019-03-10T00:06:25.535Z,52.60
2019-03-10T00:08:55.561Z,52.60
2019-03-10T00:11:25.694Z,52.60
2019-03-10T00:13:55.672Z,52.50
2019-03-10T00:16:25.551Z,52.60
2019-03-10T00:18:55.707Z,52.70
2019-03-10T00:21:25.954Z,53.20
2019-03-10T00:23:56.251Z,52.90
2019-03-10T00:26:26.417Z,52.60
2019-03-10T00:28:56.405Z,52.60
2019-03-10T00:31:26.982Z,52.40
2019-03-10T00:33:56.963Z,52.40
2019-03-10T00:36:27.101Z,52.30
2019-03-10T00:39:48.098Z,52.40
2019-03-10T00:42:54.953Z,52.20
2019-03-10T00:46:03.571Z,52.20
2019-03-10T00:49:33.031Z,52.10
2019-03-10T00:52:12.589Z,52.10
2019-03-10T00:54:42.898Z,52.10
2019-03-10T00:57:13.394Z,52.20
2019-03-10T00:59:43.514Z,52.10
2019-03-10T01:02:14.203Z,52.10
2019-03-10T01:04:44.847Z,52.00
2019-03-10T01:07:15.533Z,52.10
2019-03-10T01:09:45.717Z,52.10
2019-03-10T01:12:16.291Z,52.00
2019-03-10T01:14:46.611Z,52.20
2019-03-10T01:17:17.300Z,52.20
2019-03-10T01:19:47.530Z,52.20
2019-03-10T01:22:17.597Z,52.20
2019-03-10T01:24:47.665Z,52.10
2019-03-10T01:27:17.952Z,52.10
2019-03-10T01:29:48.389Z,52.00
2019-03-10T01:32:41.016Z,51.90
2019-03-10T01:35:17.045Z,51.60
2019-03-10T01:37:47.061Z,51.70
2019-03-10T01:40:17.159Z,51.60
2019-03-10T01:42:47.122Z,51.60
2019-03-10T01:45:17.441Z,51.50
2019-03-10T01:47:48.734Z,51.50
2019-03-10T01:50:18.906Z,51.50
2019-03-10T01:52:48.872Z,51.50
2019-03-10T01:55:18.843Z,51.50
2019-03-10T01:57:48.921Z,51.40
2019-03-10T02:00:19.330Z,51.40
2019-03-10T02:02:50.886Z,51.40
2019-03-10T02:05:20.864Z,51.40
2019-03-10T02:07:50.849Z,51.40
2019-03-10T02:10:21.351Z,51.50
2019-03-10T02:12:52.184Z,51.60
2019-03-10T02:15:22.345Z,51.50
2019-03-10T02:17:53.402Z,51.50
2019-03-10T02:20:23.668Z,51.40
2019-03-10T02:22:53.929Z,51.30
2019-03-10T02:25:24.034Z,51.30
2019-03-10T02:27:56.641Z,51.20
2019-03-10T02:30:26.736Z,51.20
2019-03-10T02:32:57.211Z,51.20
2019-03-10T02:35:27.097Z,51.20
2019-03-10T02:37:58.287Z,51.10
2019-03-10T02:40:30.006Z,51.10
2019-03-10T02:43:00.141Z,51.30
2019-03-10T02:45:30.290Z,51.20
2019-03-10T02:48:00.519Z,51.20
2019-03-10T02:50:30.622Z,51.20
2019-03-10T02:53:01.063Z,51.30
2019-03-10T02:55:31.194Z,51.20
2019-03-10T02:58:01.593Z,51.10
2019-03-10T03:00:32.244Z,51.20
2019-03-10T03:03:02.451Z,51.20
2019-03-10T03:05:33.048Z,51.30
2019-03-10T03:08:03.283Z,51.10
2019-03-10T03:10:33.346Z,51.00
2019-03-10T03:13:03.435Z,51.00
2019-03-10T03:15:33.590Z,50.80
2019-03-10T03:18:04.881Z,50.60
2019-03-10T03:20:35.165Z,50.60
2019-03-10T03:23:05.295Z,50.60
2019-03-10T03:25:35.752Z,50.50
2019-03-10T03:28:05.927Z,51.40
2019-03-10T03:30:36.172Z,50.50
2019-03-10T03:33:06.624Z,50.50
2019-03-10T03:36:03.825Z,50.40
2019-03-10T03:38:46.264Z,50.30
2019-03-10T03:41:17.765Z,50.30
2019-03-10T03:43:47.869Z,50.30
2019-03-10T03:46:17.838Z,50.20
2019-03-10T03:48:48.488Z,50.20
2019-03-10T03:51:18.702Z,50.20
2019-03-10T03:53:48.677Z,50.20
2019-03-10T03:56:18.763Z,50.30
2019-03-10T03:58:49.554Z,50.40
2019-03-10T04:01:25.861Z,50.50
2019-03-10T04:03:55.970Z,50.40
2019-03-10T04:06:26.018Z,50.30
2019-03-10T04:08:56.517Z,50.30
2019-03-10T04:11:26.564Z,50.30
2019-03-10T04:13:56.897Z,50.20
2019-03-10T04:16:28.107Z,50.40
2019-03-10T04:18:58.045Z,50.10
2019-03-10T04:21:29.029Z,50.10
2019-03-10T04:23:59.398Z,50.00
2019-03-10T04:26:29.919Z,50.00
2019-03-10T04:28:59.914Z,49.90
2019-03-10T04:31:30.199Z,50.00
2019-03-10T04:34:00.472Z,50.00
2019-03-10T04:36:30.551Z,49.90
2019-03-10T04:39:01.089Z,50.00
2019-03-10T04:41:33.175Z,49.90
2019-03-10T04:44:03.351Z,50.00
2019-03-10T04:46:33.831Z,50.00
2019-03-10T04:49:04.126Z,50.00
2019-03-10T04:51:34.206Z,49.80
2019-03-10T04:54:04.346Z,49.70
2019-03-10T04:56:53.265Z,49.60
2019-03-10T04:59:24.765Z,49.60
2019-03-10T05:01:55.561Z,49.40
2019-03-10T05:04:25.721Z,49.40
2019-03-10T05:06:55.745Z,49.30
2019-03-10T05:09:25.889Z,49.30
2019-03-10T05:11:55.804Z,49.30
2019-03-10T05:14:25.836Z,49.20
2019-03-10T05:16:56.193Z,49.10
2019-03-10T05:19:26.296Z,49.20
2019-03-10T05:21:56.607Z,49.10
2019-03-10T05:24:27.796Z,49.10
2019-03-10T05:26:57.951Z,49.00
2019-03-10T05:29:28.550Z,48.90
2019-03-10T05:31:58.565Z,48.90
2019-03-10T05:34:28.951Z,49.00
2019-03-10T05:36:59.879Z,48.90
2019-03-10T05:39:29.864Z,49.00
2019-03-10T05:42:01.114Z,48.90
2019-03-10T05:44:31.207Z,48.90
2019-03-10T05:47:01.229Z,49.10
2019-03-10T05:49:31.255Z,49.10
2019-03-10T05:52:01.257Z,49.40
2019-03-10T05:54:31.254Z,49.00
2019-03-10T05:57:01.399Z,49.00
2019-03-10T05:59:31.639Z,48.90
2019-03-10T06:02:01.835Z,48.90
2019-03-10T06:04:31.859Z,48.90
2019-03-10T06:07:01.780Z,48.80
2019-03-10T06:09:31.993Z,48.90
2019-03-10T06:12:02.137Z,48.70
2019-03-10T06:14:32.250Z,48.80
2019-03-10T06:17:02.368Z,48.80
2019-03-10T06:19:32.557Z,48.80
2019-03-10T06:22:03.123Z,48.70
2019-03-10T06:24:33.168Z,48.70
2019-03-10T06:27:03.230Z,48.70
2019-03-10T06:29:33.458Z,48.90
2019-03-10T06:32:03.418Z,48.80
2019-03-10T06:34:33.531Z,48.90
2019-03-10T06:37:03.664Z,48.80
2019-03-10T06:39:34.166Z,48.80
2019-03-10T06:42:04.825Z,48.60
2019-03-10T06:44:34.972Z,48.50
2019-03-10T06:47:04.965Z,48.40
2019-03-10T06:49:35.275Z,48.50
2019-03-10T06:52:05.834Z,48.20
2019-03-10T06:54:36.177Z,48.30
2019-03-10T06:57:06.245Z,48.20
2019-03-10T06:59:36.604Z,48.20
2019-03-10T07:02:07.047Z,48.10
2019-03-10T07:04:38.919Z,48.10
2019-03-10T07:07:10.727Z,48.10
2019-03-10T07:09:41.062Z,48.20
2019-03-10T07:12:15.606Z,48.00
2019-03-10T07:14:46.947Z,48.00
2019-03-10T07:17:17.996Z,48.00
2019-03-10T07:19:49.697Z,48.00
2019-03-10T07:22:38.852Z,48.00
2019-03-10T07:25:09.207Z,47.90
2019-03-10T07:28:01.893Z,47.90
2019-03-10T07:30:46.055Z,47.90
2019-03-10T07:33:25.449Z,47.90
2019-03-10T07:36:10.003Z,47.90
2019-03-10T07:38:47.829Z,47.90
2019-03-10T07:41:35.247Z,47.90
2019-03-10T07:44:19.483Z,47.80
2019-03-10T07:46:57.921Z,47.80
2019-03-10T07:49:45.606Z,47.80
2019-03-10T07:52:26.840Z,47.80
2019-03-10T07:55:16.046Z,47.70
2019-03-10T07:58:03.196Z,47.70
2019-03-10T08:00:39.481Z,47.70
2019-03-10T08:03:20.171Z,47.60
2019-03-10T08:06:09.116Z,47.60
2019-03-10T08:09:02.261Z,47.60
2019-03-10T08:11:47.008Z,47.60
2019-03-10T08:14:54.469Z,48.50
2019-03-10T08:17:42.491Z,47.60
2019-03-10T08:20:33.138Z,47.70
2019-03-10T08:23:20.301Z,47.70
2019-03-10T08:26:00.322Z,47.90
2019-03-10T08:28:58.209Z,48.00
2019-03-10T08:31:49.848Z,47.90
2019-03-10T08:34:37.862Z,47.80
2019-03-10T08:37:13.691Z,47.80
2019-03-10T08:40:01.710Z,47.70
2019-03-10T08:42:49.695Z,47.70
2019-03-10T08:45:50.775Z,47.60
2019-03-10T08:48:48.641Z,47.80
2019-03-10T08:51:40.650Z,47.60
2019-03-10T08:54:15.846Z,47.50
2019-03-10T08:57:04.773Z,47.40
2019-03-10T08:59:57.661Z,47.30
2019-03-10T09:02:45.034Z,47.30
2019-03-10T09:05:32.226Z,47.20
2019-03-10T09:08:24.328Z,47.20
2019-03-10T09:11:31.504Z,47.10
2019-03-10T09:14:12.889Z,47.10
2019-03-10T09:17:05.475Z,47.20
2019-03-10T09:19:45.039Z,47.10
2019-03-10T09:22:46.756Z,47.30
2019-03-10T09:25:45.034Z,47.30
2019-03-10T09:28:27.034Z,47.20
2019-03-10T09:31:15.618Z,47.30
2019-03-10T09:33:58.859Z,47.40
2019-03-10T09:36:41.567Z,48.40
2019-03-10T09:39:36.500Z,48.40
2019-03-10T09:42:24.695Z,49.00
2019-03-10T09:45:03.470Z,49.00
2019-03-10T09:48:01.585Z,49.00
2019-03-10T09:50:56.786Z,49.00
2019-03-10T09:53:54.675Z,49.10
2019-03-10T09:56:52.497Z,49.10
2019-03-10T09:59:40.526Z,49.40
2019-03-10T10:02:32.671Z,49.50
2019-03-10T10:05:14.489Z,49.40
2019-03-10T10:08:09.384Z,49.60
2019-03-10T10:11:07.311Z,49.50
2019-03-10T10:13:51.166Z,49.50
2019-03-10T10:16:30.476Z,49.50
2019-03-10T10:19:19.640Z,49.60
2019-03-10T10:22:11.411Z,50.10
2019-03-10T10:25:06.009Z,51.20
2019-03-10T10:28:13.927Z,50.50
2019-03-10T10:30:58.299Z,50.50
2019-03-10T10:33:47.353Z,50.60
2019-03-10T10:36:28.155Z,50.90
2019-03-10T10:39:24.653Z,51.00
2019-03-10T10:42:12.419Z,51.10
2019-03-10T10:45:16.880Z,51.20
2019-03-10T10:48:24.101Z,51.20
2019-03-10T10:51:13.266Z,51.30
2019-03-10T10:54:02.357Z,51.30
2019-03-10T10:56:48.993Z,51.30
2019-03-10T10:59:35.005Z,51.40
2019-03-10T11:02:17.425Z,51.30
2019-03-10T11:05:09.517Z,51.30
2019-03-10T11:08:16.638Z,51.30
2019-03-10T11:11:02.254Z,51.20
2019-03-10T11:14:09.593Z,51.50
2019-03-10T11:16:51.375Z,51.50
2019-03-10T11:19:45.411Z,52.10
2019-03-10T11:22:30.487Z,52.80
2019-03-10T11:25:19.577Z,54.20
2019-03-10T11:28:04.773Z,55.70
2019-03-10T11:30:48.786Z,54.70
2019-03-10T11:33:36.997Z,54.10
2019-03-10T11:36:17.861Z,53.80
2019-03-10T11:39:06.889Z,53.60
2019-03-10T11:42:04.214Z,53.50
2019-03-10T11:44:56.854Z,53.50
2019-03-10T11:47:35.021Z,53.90
2019-03-10T11:50:30.552Z,53.60
2019-03-10T11:53:25.879Z,53.60
2019-03-10T11:56:09.765Z,53.50
2019-03-10T11:59:01.862Z,53.50
2019-03-10T12:01:41.215Z,53.70
2019-03-10T12:04:28.826Z,53.60
2019-03-10T12:07:22.520Z,53.60
2019-03-10T12:09:52.664Z,53.40
2019-03-10T12:12:22.924Z,53.40
2019-03-10T12:14:53.254Z,53.30
2019-03-10T12:17:23.770Z,53.30
2019-03-10T12:19:54.182Z,53.40
2019-03-10T12:22:24.468Z,53.50
2019-03-10T12:24:55.336Z,53.40
2019-03-10T12:27:25.650Z,53.40
2019-03-10T12:29:56.010Z,53.30
2019-03-10T12:32:26.262Z,54.20
2019-03-10T12:34:56.679Z,53.60
2019-03-10T12:37:26.967Z,53.40
2019-03-10T12:39:57.033Z,53.40
2019-03-10T12:42:27.163Z,53.30
2019-03-10T12:44:57.465Z,53.10
2019-03-10T12:47:28.465Z,53.10
2019-03-10T12:49:58.832Z,53.10
2019-03-10T12:52:29.263Z,53.00
2019-03-10T12:54:59.450Z,53.10
2019-03-10T12:57:29.957Z,53.10
2019-03-10T13:00:00.225Z,53.30
2019-03-10T13:02:33.958Z,53.40
2019-03-10T13:05:04.131Z,53.40
2019-03-10T13:07:34.545Z,53.40
2019-03-10T13:10:04.708Z,53.90
2019-03-10T13:12:34.810Z,54.50
2019-03-10T13:15:04.964Z,55.60
2019-03-10T13:17:34.993Z,55.50
2019-03-10T13:20:05.407Z,55.40
2019-03-10T13:22:35.758Z,55.20
2019-03-10T13:25:07.776Z,55.40
2019-03-10T13:27:37.985Z,55.50
2019-03-10T13:30:08.715Z,55.40
2019-03-10T13:32:39.347Z,55.10
2019-03-10T13:35:09.816Z,54.70
2019-03-10T13:37:40.608Z,54.40
2019-03-10T13:40:10.950Z,54.40
2019-03-10T13:42:40.880Z,54.40
2019-03-10T13:45:12.355Z,54.30
2019-03-10T13:47:43.899Z,54.20
2019-03-10T13:50:15.213Z,54.10
2019-03-10T13:52:45.597Z,54.20
2019-03-10T13:55:16.134Z,54.10
2019-03-10T13:57:46.848Z,54.10
2019-03-10T14:00:19.464Z,54.20
2019-03-10T14:02:49.539Z,54.20
2019-03-10T14:05:20.059Z,54.20
2019-03-10T14:07:50.078Z,54.20
2019-03-10T14:10:20.387Z,54.30
2019-03-10T14:12:51.878Z,54.30
2019-03-10T14:15:22.302Z,54.60
2019-03-10T14:17:53.617Z,54.30
2019-03-10T14:20:24.115Z,54.40
2019-03-10T14:22:54.296Z,54.30
2019-03-10T14:25:24.488Z,54.20
2019-03-10T14:27:54.401Z,54.10
2019-03-10T14:30:24.351Z,54.00
2019-03-10T14:32:54.358Z,53.80
2019-03-10T14:35:24.285Z,53.80
2019-03-10T14:37:54.374Z,53.70
2019-03-10T14:40:24.689Z,53.70
2019-03-10T14:42:54.625Z,53.70
2019-03-10T14:45:24.847Z,53.60
2019-03-10T14:47:54.806Z,53.70
2019-03-10T14:50:24.850Z,53.60
2019-03-10T14:52:54.829Z,53.70
2019-03-10T14:55:24.782Z,53.50
2019-03-10T14:57:54.965Z,53.20
2019-03-10T15:00:24.938Z,53.40
2019-03-10T15:02:55.052Z,53.80
2019-03-10T15:05:25.122Z,54.20
2019-03-10T15:07:55.884Z,53.90
2019-03-10T15:10:26.360Z,53.30
2019-03-10T15:12:56.286Z,53.30
2019-03-10T15:15:26.470Z,53.50
2019-03-10T15:17:56.689Z,53.50
2019-03-10T15:20:26.849Z,53.60
2019-03-10T15:22:56.910Z,53.70
2019-03-10T15:25:27.978Z,53.60
2019-03-10T15:27:58.163Z,53.40
2019-03-10T15:30:28.480Z,53.50
2019-03-10T15:32:58.516Z,53.50
2019-03-10T15:35:28.485Z,54.10
2019-03-10T15:37:58.508Z,54.30
2019-03-10T15:40:28.607Z,54.30
2019-03-10T15:42:58.618Z,54.80
2019-03-10T15:45:28.682Z,54.60
2019-03-10T15:47:58.798Z,54.50
2019-03-10T15:50:28.771Z,55.00
2019-03-10T15:52:58.862Z,54.40
2019-03-10T15:58:37.029Z,53.50
2019-03-10T16:01:06.924Z,52.70
2019-03-10T16:03:36.950Z,52.30
2019-03-10T16:06:06.908Z,51.80
2019-03-10T16:08:36.964Z,51.40
2019-03-10T16:11:07.074Z,50.90
2019-03-10T16:13:37.634Z,50.40
2019-03-10T16:16:07.587Z,50.40
2019-03-10T16:18:37.518Z,50.10
2019-03-10T16:21:07.548Z,50.10
2019-03-10T16:23:37.685Z,50.10
2019-03-10T16:26:07.683Z,50.70
2019-03-10T16:28:38.330Z,51.10
2019-03-10T16:31:08.647Z,51.20
2019-03-10T16:33:38.980Z,51.30
2019-03-10T16:36:09.270Z,51.40
2019-03-10T16:38:39.258Z,51.70
2019-03-10T16:41:09.233Z,51.90
2019-03-10T16:43:39.281Z,52.10
2019-03-10T16:46:09.177Z,52.50
2019-03-10T16:48:39.134Z,52.50
2019-03-10T16:51:09.279Z,53.00
2019-03-10T16:53:41.628Z,53.00
2019-03-10T16:56:11.057Z,53.00
2019-03-10T16:58:41.094Z,53.20
2019-03-10T17:01:11.154Z,53.30
2019-03-10T17:03:41.182Z,53.50
2019-03-10T17:06:11.243Z,53.60
2019-03-10T17:08:41.290Z,53.50
2019-03-10T17:11:13.016Z,53.50
2019-03-10T17:13:43.028Z,53.50
2019-03-10T17:16:13.058Z,53.80
2019-03-10T17:18:43.005Z,53.60
2019-03-10T17:21:13.044Z,53.60
2019-03-10T17:23:43.186Z,53.70
2019-03-10T17:26:13.939Z,53.80
2019-03-10T17:28:43.907Z,53.80
2019-03-10T17:31:14.549Z,54.10
2019-03-10T17:33:44.572Z,54.30
2019-03-10T17:36:14.570Z,54.50
2019-03-10T17:38:44.463Z,54.50
2019-03-10T17:41:14.460Z,54.60
2019-03-10T17:43:44.337Z,54.70
2019-03-10T17:46:14.364Z,54.90
2019-03-10T17:48:44.331Z,55.00
2019-03-10T17:51:14.356Z,55.20
2019-03-10T17:53:44.523Z,55.30
2019-03-10T17:56:14.624Z,55.30
2019-03-10T17:58:44.799Z,55.20
2019-03-10T18:01:14.740Z,55.20
2019-03-10T18:03:44.863Z,55.40
2019-03-10T18:06:14.818Z,55.60
2019-03-10T18:08:44.827Z,55.50
2019-03-10T18:11:14.864Z,55.50
2019-03-10T18:13:47.690Z,55.40
2019-03-10T18:16:17.773Z,55.40
2019-03-10T18:18:48.912Z,55.40
2019-03-10T18:21:18.979Z,55.70
2019-03-10T18:23:49.181Z,55.70
2019-03-10T18:26:19.259Z,55.60
2019-03-10T18:28:49.306Z,55.50
2019-03-10T18:31:20.407Z,55.50
2019-03-10T18:33:51.731Z,55.70
2019-03-10T18:36:22.843Z,55.70
2019-03-10T18:38:53.449Z,55.70
2019-03-10T18:41:23.653Z,55.50
2019-03-10T18:43:53.937Z,55.60
2019-03-10T18:46:24.100Z,56.30
2019-03-10T18:48:54.194Z,55.70
2019-03-10T18:51:24.216Z,55.60
2019-03-10T18:53:54.250Z,55.50
2019-03-10T18:56:24.266Z,55.70
2019-03-10T18:58:55.434Z,55.60
2019-03-10T19:01:25.954Z,55.50
2019-03-10T19:03:57.162Z,55.60
2019-03-10T19:06:27.383Z,55.70
2019-03-10T19:08:58.165Z,55.80
2019-03-10T19:11:29.096Z,55.70
2019-03-10T19:14:00.294Z,55.50
2019-03-10T19:16:30.577Z,55.30
2019-03-10T19:19:00.781Z,55.60
2019-03-10T19:21:31.127Z,55.40
2019-03-10T19:24:01.155Z,55.50
2019-03-10T19:26:31.641Z,55.70
2019-03-10T19:29:01.654Z,55.30
2019-03-10T19:31:33.004Z,55.20
2019-03-10T19:34:03.280Z,55.20
2019-03-10T19:36:33.589Z,55.10
2019-03-10T19:39:04.694Z,55.20
2019-03-10T19:41:36.378Z,55.10
2019-03-10T19:44:06.512Z,55.10
2019-03-10T19:46:36.893Z,55.30
2019-03-10T19:49:07.039Z,55.30
2019-03-10T19:51:37.120Z,55.40
2019-03-10T19:54:07.772Z,55.40
2019-03-10T19:56:49.863Z,55.40
2019-03-10T19:59:19.848Z,55.30
2019-03-10T20:01:50.106Z,55.60
2019-03-10T20:04:20.098Z,55.60
2019-03-10T20:06:50.201Z,55.50
2019-03-10T20:09:20.344Z,55.50
2019-03-10T20:11:50.817Z,55.60
2019-03-10T20:14:21.782Z,55.60
2019-03-10T20:16:52.079Z,56.00
2019-03-10T20:19:23.380Z,56.10
2019-03-10T20:21:53.365Z,56.20
2019-03-10T20:24:23.489Z,56.00
2019-03-10T20:26:53.730Z,55.70
2019-03-10T20:29:23.990Z,55.80
2019-03-10T20:31:54.383Z,55.50
2019-03-10T20:34:24.789Z,55.60
2019-03-10T20:36:57.191Z,55.60
2019-03-10T20:39:28.601Z,55.70
2019-03-10T20:42:05.007Z,55.70
2019-03-10T20:44:32.514Z,55.70
2019-03-10T20:47:02.662Z,55.70
2019-03-10T20:49:32.908Z,55.60
2019-03-10T20:52:04.175Z,55.30
2019-03-10T20:54:34.675Z,56.60
2019-03-10T20:57:05.597Z,59.40
2019-03-10T20:59:35.765Z,59.50
2019-03-10T21:02:06.425Z,58.30
2019-03-10T21:04:36.817Z,57.40
2019-03-10T21:07:09.987Z,57.50
2019-03-10T21:09:39.670Z,57.20
2019-03-10T21:12:09.868Z,57.00
2019-03-10T21:14:40.552Z,56.90
2019-03-10T21:17:11.121Z,56.80
2019-03-10T21:19:42.124Z,56.60
2019-03-10T21:22:12.261Z,56.60
2019-03-10T21:24:42.294Z,56.50
2019-03-10T21:27:12.703Z,56.40
2019-03-10T21:29:42.805Z,56.60
2019-03-10T21:32:12.847Z,56.90
2019-03-10T21:34:43.090Z,57.20
2019-03-10T21:37:13.609Z,57.30
2019-03-10T21:39:44.102Z,57.20
2019-03-10T21:42:15.994Z,57.20
2019-03-10T21:44:47.935Z,57.20
2019-03-10T21:47:18.868Z,57.40
2019-03-10T21:49:52.190Z,57.20
2019-03-10T21:52:24.781Z,57.10
2019-03-10T21:54:56.730Z,57.00
2019-03-10T21:57:27.657Z,56.90
2019-03-10T21:59:58.622Z,57.00
2019-03-10T22:02:28.916Z,57.10
2019-03-10T22:04:59.980Z,57.10
2019-03-10T22:07:30.175Z,57.10
2019-03-10T22:10:02.061Z,57.00
2019-03-10T22:12:32.373Z,57.00
2019-03-10T22:15:03.472Z,57.00
2019-03-10T22:17:35.365Z,57.00
2019-03-10T22:20:06.432Z,57.20
2019-03-10T22:22:47.877Z,57.00
2019-03-10T22:25:12.874Z,57.30
2019-03-10T22:27:40.231Z,57.50
2019-03-10T22:30:12.436Z,57.30
2019-03-10T22:32:48.898Z,57.00
2019-03-10T22:35:19.861Z,56.80
2019-03-10T22:37:50.095Z,56.50
2019-03-10T22:40:21.295Z,56.20
2019-03-10T22:42:51.410Z,55.90
2019-03-10T22:45:22.169Z,55.70
2019-03-10T22:47:52.319Z,55.60
2019-03-10T22:50:22.895Z,55.30
2019-03-10T22:52:53.044Z,55.30
2019-03-10T22:55:23.052Z,55.20
2019-03-10T22:57:53.114Z,55.20
2019-03-10T23:00:25.628Z,55.00
2019-03-10T23:02:57.328Z,55.00
2019-03-10T23:05:27.604Z,55.00
2019-03-10T23:07:57.765Z,55.00
2019-03-10T23:10:28.050Z,55.00
2019-03-10T23:12:58.106Z,55.30
2019-03-10T23:15:29.066Z,54.90
2019-03-10T23:17:59.184Z,55.00
2019-03-10T23:20:29.341Z,54.70
2019-03-10T23:22:59.602Z,54.70
2019-03-10T23:25:30.450Z,54.70
2019-03-10T23:28:00.628Z,54.70
2019-03-10T23:30:30.770Z,54.90
2019-03-10T23:33:01.357Z,55.00
2019-03-10T23:35:31.431Z,55.00
2019-03-10T23:38:01.514Z,54.90
2019-03-10T23:40:31.642Z,54.90
2019-03-10T23:43:01.770Z,54.80
2019-03-10T23:45:33.210Z,54.80
2019-03-10T23:48:03.373Z,54.80
2019-03-10T23:50:33.759Z,54.70
2019-03-10T23:53:04.098Z,54.80
2019-03-10T23:55:34.223Z,54.70
2019-03-10T23:58:04.201Z,54.70
